Time;durP1;ratioP1;P1;durP2;ratioP2;P2;SDS_P1;SDS_P2;PMS_P1;PMS_P2;Temp;Humidity;BMP_temperature;BMP_pressure;BME280_temperature;BME280_humidity;BME280_pressure;Samples;Min_cycle;Max_cycle;Signal;HPM_P1;HPM_P2
2021/01/05 00:00:26;;;;;;;26.67;14.30;;;;;;;2.14;84.29;100124.84;5009007;28;20058;-83
2021/01/05 00:02:53;;;;;;;25.20;13.73;;;;;;;2.16;84.69;100130.03;5009692;28;20570;-83
2021/01/05 00:05:22;;;;;;;26.90;14.57;;;;;;;2.11;84.29;100122.28;5017223;28;20488;-84
2021/01/05 00:07:50;;;;;;;26.42;14.30;;;;;;;2.17;84.49;100131.75;5017025;28;20263;-84
2021/01/05 00:10:18;;;;;;;29.08;14.95;;;;;;;2.12;84.41;100126.59;5011428;28;20042;-84
2021/01/05 00:12:44;;;;;;;24.08;12.95;;;;;;;2.09;84.55;100116.19;5017320;28;20062;-84
2021/01/05 00:15:14;;;;;;;26.00;13.35;;;;;;;2.18;84.56;100130.88;5017359;28;20573;-85
2021/01/05 00:17:40;;;;;;;27.17;13.93;;;;;;;2.16;84.72;100128.28;5014357;28;20050;-84
2021/01/05 00:20:21;;;;;;;23.90;14.73;;;;;;;2.18;84.70;100134.34;5016131;28;20044;-84
2021/01/05 00:22:48;;;;;;;24.55;13.35;;;;;;;2.13;84.48;100122.25;5034477;28;20068;-83
2021/01/05 00:25:17;;;;;;;26.98;13.98;;;;;;;2.11;84.60;100123.13;5033612;28;20097;-83
2021/01/05 00:27:45;;;;;;;25.35;14.18;;;;;;;2.14;84.75;100129.19;5030316;28;20101;-83
2021/01/05 00:30:22;;;;;;;27.42;14.25;;;;;;;2.14;84.95;100126.59;5026423;28;20054;-84
2021/01/05 00:32:51;;;;;;;26.60;14.25;;;;;;;2.08;85.05;100130.16;5013388;28;20140;-84
2021/01/05 00:35:24;;;;;;;24.90;14.00;;;;;;;2.09;85.06;100131.88;5014445;28;20054;-83
2021/01/05 00:37:51;;;;;;;26.40;14.68;;;;;;;2.09;85.00;100134.50;5014308;28;20373;-84
2021/01/05 00:40:20;;;;;;;26.50;13.77;;;;;;;2.10;84.68;100131.00;5021271;28;20453;-83
2021/01/05 00:42:47;;;;;;;25.58;13.38;;;;;;;2.09;84.71;100130.13;5011513;28;20140;-85
2021/01/05 00:45:18;;;;;;;26.95;14.85;;;;;;;2.04;84.98;100115.44;5014869;28;20770;-83
2021/01/05 00:47:45;;;;;;;26.48;13.75;;;;;;;2.09;84.63;100124.03;5015957;28;20046;-84
2021/01/05 00:50:13;;;;;;;26.35;13.75;;;;;;;2.09;84.72;100121.44;5018187;28;20507;-84
2021/01/05 00:52:40;;;;;;;24.80;13.52;;;;;;;2.14;84.44;100118.75;5014109;28;20057;-83
2021/01/05 00:55:07;;;;;;;28.73;14.05;;;;;;;2.09;84.79;100122.28;5009429;28;20049;-84
2021/01/05 00:57:34;;;;;;;26.90;13.73;;;;;;;2.07;84.77;100117.97;5013052;28;20080;-84
2021/01/05 01:00:00;;;;;;;27.63;14.50;;;;;;;2.06;84.96;100124.09;5009832;28;20053;-83
2021/01/05 01:02:27;;;;;;;25.17;13.52;;;;;;;2.07;84.74;100131.91;5003701;28;20054;-83
2021/01/05 01:04:53;;;;;;;30.63;15.52;;;;;;;2.06;84.73;100127.56;5001400;28;20396;-83
2021/01/05 01:07:20;;;;;;;27.08;13.70;;;;;;;2.08;84.13;100124.94;5011060;28;20092;-84
2021/01/05 01:09:46;;;;;;;25.33;13.45;;;;;;;2.08;84.07;100125.78;5026249;28;20045;-84
2021/01/05 01:12:17;;;;;;;26.40;13.85;;;;;;;2.06;84.09;100126.69;5002325;28;20099;-84
2021/01/05 01:14:45;;;;;;;27.75;14.27;;;;;;;2.04;84.57;100112.84;5029524;28;20157;-83
2021/01/05 01:17:12;;;;;;;27.90;13.48;;;;;;;2.06;84.83;100126.69;5015698;28;20485;-84
2021/01/05 01:19:38;;;;;;;25.80;13.85;;;;;;;2.06;84.94;100118.88;5025952;28;20041;-84
2021/01/05 01:22:05;;;;;;;24.67;13.57;;;;;;;2.07;84.68;100128.41;5007443;28;20488;-85
2021/01/05 01:24:32;;;;;;;24.20;12.52;;;;;;;2.07;84.26;100125.81;5000183;28;20050;-84
2021/01/05 01:27:17;;;;;;;23.63;13.27;;;;;;;2.11;84.43;100130.97;4988147;28;20148;-84
2021/01/05 01:29:43;;;;;;;26.90;13.90;;;;;;;2.09;83.97;100117.06;4994964;28;20080;-83
2021/01/05 01:32:10;;;;;;;25.15;13.32;;;;;;;2.09;84.15;100117.06;5008420;28;20053;-83
2021/01/05 01:34:36;;;;;;;25.52;13.32;;;;;;;2.14;84.46;100117.00;5007823;28;20428;-83
2021/01/05 01:37:07;;;;;;;28.58;14.75;;;;;;;2.17;84.77;100116.94;5021169;28;20054;-83
2021/01/05 01:39:35;;;;;;;25.38;13.63;;;;;;;2.18;84.86;100110.84;5048588;28;20635;-82
2021/01/05 01:42:05;;;;;;;24.50;13.52;;;;;;;2.16;84.44;100110.00;5023624;28;20517;-83
2021/01/05 01:44:40;;;;;;;26.02;13.65;;;;;;;2.14;84.33;100097.84;5009786;28;20055;-85
2021/01/05 01:47:06;;;;;;;25.98;13.48;;;;;;;2.17;84.22;100114.34;5020056;28;20053;-83
2021/01/05 01:49:34;;;;;;;25.10;14.23;;;;;;;2.15;84.19;100110.03;5017344;28;20069;-83
2021/01/05 01:52:01;;;;;;;22.02;12.70;;;;;;;2.14;84.78;100111.78;5002993;28;20065;-84
2021/01/05 01:54:58;;;;;;;24.98;13.18;;;;;;;2.13;84.55;100103.97;5008735;28;20115;-83
2021/01/05 01:57:36;;;;;;;25.33;13.02;;;;;;;2.15;84.16;100116.13;5008133;28;20467;-84
2021/01/05 02:03:33;;;;;;;26.05;12.70;;;;;;;2.16;84.55;100114.38;4953736;28;20131;-79
2021/01/05 02:06:21;;;;;;;25.90;12.85;;;;;;;2.19;84.32;100116.94;4958620;28;20047;-80
2021/01/05 02:09:15;;;;;;;23.85;12.73;;;;;;;2.18;83.58;100116.06;4958916;29;20138;-80
2021/01/05 02:11:52;;;;;;;21.70;12.82;;;;;;;2.21;83.52;100115.13;4990240;28;20162;-79
2021/01/05 02:14:54;;;;;;;26.08;13.70;;;;;;;2.19;83.58;100122.16;4960884;29;20119;-79
2021/01/05 02:17:58;;;;;;;25.02;12.45;;;;;;;2.21;83.74;100122.97;4961141;28;20082;-81
2021/01/05 02:20:29;;;;;;;23.40;13.30;;;;;;;2.19;83.98;100109.94;4967347;28;20090;-80
2021/01/05 02:23:30;;;;;;;22.58;12.27;;;;;;;2.11;83.57;100109.22;4982379;28;20097;-80
2021/01/05 02:26:07;;;;;;;22.80;12.35;;;;;;;2.04;83.82;100108.47;4978271;28;20194;-80
2021/01/05 02:28:40;;;;;;;24.33;12.52;;;;;;;2.08;83.90;100109.25;4994512;28;20051;-79
2021/01/05 02:31:38;;;;;;;21.63;12.85;;;;;;;2.05;84.17;100099.72;4974648;28;20154;-80
2021/01/05 02:34:14;;;;;;;24.58;12.23;;;;;;;2.07;84.02;100110.13;5002822;28;20047;-80
2021/01/05 02:36:57;;;;;;;22.25;12.23;;;;;;;2.05;84.29;100109.31;4969537;28;20075;-80
2021/01/05 02:39:52;;;;;;;22.80;12.32;;;;;;;2.09;84.47;100100.53;5007707;28;20049;-80
2021/01/05 02:42:31;;;;;;;24.95;13.00;;;;;;;2.07;83.89;100107.53;4959097;28;20070;-79
2021/01/05 02:45:21;;;;;;;24.20;12.98;;;;;;;2.05;84.47;100117.13;4960728;28;20135;-79
2021/01/05 02:48:00;;;;;;;23.23;12.00;;;;;;;2.02;84.32;100109.38;4958670;28;20401;-78
2021/01/05 02:50:53;;;;;;;19.10;11.60;;;;;;;2.05;83.57;100098.84;4958454;29;20478;-79
2021/01/05 02:53:40;;;;;;;23.15;12.57;;;;;;;2.00;84.70;100101.56;4958867;28;20241;-79
2021/01/05 02:57:01;;;;;;;20.63;12.20;;;;;;;2.00;84.36;100108.53;4988852;28;20047;-77
2021/01/05 02:59:46;;;;;;;21.38;11.50;;;;;;;2.01;84.33;100092.84;4918074;29;20059;-77
2021/01/05 03:02:37;;;;;;;20.02;11.05;;;;;;;2.11;84.00;100110.06;4958734;28;20043;-80
2021/01/05 03:05:06;;;;;;;19.98;11.02;;;;;;;2.13;82.94;100102.22;4973225;28;20474;-79
2021/01/05 03:07:33;;;;;;;19.27;11.57;;;;;;;2.14;82.94;100101.31;4958348;28;20138;-80
2021/01/05 03:10:28;;;;;;;19.58;11.23;;;;;;;2.05;83.71;100101.47;4958400;28;20397;-79
2021/01/05 03:13:10;;;;;;;22.55;12.05;;;;;;;2.02;83.62;100104.16;4972823;28;20062;-79
2021/01/05 03:15:45;;;;;;;18.75;11.23;;;;;;;2.01;83.80;100098.06;4958337;29;20079;-78
2021/01/05 03:18:20;;;;;;;22.00;11.65;;;;;;;2.08;83.07;100111.88;4958110;28;20051;-80
2021/01/05 03:21:08;;;;;;;19.42;11.15;;;;;;;2.08;82.56;100109.25;4972842;28;20051;-80
2021/01/05 03:23:35;;;;;;;19.42;10.90;;;;;;;2.08;82.74;100110.13;4974587;28;20047;-79
2021/01/05 03:26:09;;;;;;;17.92;10.35;;;;;;;2.07;82.52;100110.13;4974107;28;20047;-80
2021/01/05 03:28:36;;;;;;;21.08;11.48;;;;;;;2.00;83.11;100113.75;4973259;28;20486;-79
2021/01/05 03:31:17;;;;;;;19.33;10.95;;;;;;;1.99;83.27;100115.50;4957227;28;20480;-80
2021/01/05 03:33:47;;;;;;;18.80;10.70;;;;;;;2.02;83.98;100104.16;4971909;28;20054;-79
2021/01/05 03:36:13;;;;;;;20.23;11.07;;;;;;;2.02;83.24;100101.53;4956968;28;20051;-78
2021/01/05 03:38:39;;;;;;;20.02;11.05;;;;;;;2.00;83.43;100106.78;4957699;28;20482;-80
2021/01/05 03:41:06;;;;;;;19.77;10.90;;;;;;;2.00;83.29;100106.78;4957889;29;20069;-81
2021/01/05 03:43:32;;;;;;;21.05;11.88;;;;;;;1.99;83.14;100106.81;4972287;28;20453;-81
2021/01/05 03:45:58;;;;;;;19.33;11.05;;;;;;;2.02;83.14;100109.38;4956268;29;20063;-80
2021/01/05 03:48:25;;;;;;;20.63;10.50;;;;;;;2.01;83.16;100110.25;4956928;29;20403;-79
2021/01/05 03:50:52;;;;;;;20.15;11.38;;;;;;;2.02;83.53;100109.38;4956945;29;20142;-78
2021/01/05 03:53:18;;;;;;;20.40;11.63;;;;;;;2.06;83.51;100097.97;4972424;28;20078;-79
2021/01/05 03:55:45;;;;;;;19.02;10.93;;;;;;;2.08;83.25;100101.41;4957045;29;20051;-79
2021/01/05 03:58:11;;;;;;;18.73;10.52;;;;;;;2.09;83.41;100098.78;4971989;28;20139;-81
2021/01/05 04:00:37;;;;;;;21.38;12.32;;;;;;;2.00;83.60;100090.25;4956623;29;20055;-79
2021/01/05 04:03:04;;;;;;;22.65;11.82;;;;;;;1.98;83.61;100094.63;4956858;28;20051;-78
2021/01/05 04:05:30;;;;;;;22.10;11.98;;;;;;;2.00;83.79;100090.25;4971912;28;20074;-78
2021/01/05 04:07:57;;;;;;;22.77;12.20;;;;;;;2.00;83.34;100100.69;4971529;28;20063;-78
2021/01/05 04:10:23;;;;;;;23.08;12.48;;;;;;;1.99;83.89;100106.81;4956215;28;20104;-77
2021/01/05 04:12:53;;;;;;;21.20;12.18;;;;;;;1.99;83.66;100105.06;4987374;28;20051;-78
2021/01/05 04:15:26;;;;;;;23.52;12.20;;;;;;;2.03;83.37;100111.09;4987593;28;20051;-80
2021/01/05 04:17:53;;;;;;;24.80;12.93;;;;;;;2.05;83.41;100109.31;4971408;28;20161;-78
2021/01/05 04:20:21;;;;;;;24.48;12.90;;;;;;;2.05;83.53;100096.25;4956868;28;20051;-80
2021/01/05 04:22:47;;;;;;;25.48;12.95;;;;;;;2.14;83.51;100108.31;4970989;28;20051;-78
2021/01/05 04:25:16;;;;;;;25.17;13.68;;;;;;;2.07;83.38;100094.47;4970517;28;20051;-80
2021/01/05 04:27:43;;;;;;;22.33;12.38;;;;;;;2.09;83.37;100100.53;4957014;28;20059;-80
2021/01/05 04:30:21;;;;;;;22.70;12.18;;;;;;;2.11;83.31;100097.00;4971296;28;20047;-79
2021/01/05 04:32:48;;;;;;;22.80;13.00;;;;;;;2.16;82.79;100098.69;4956234;28;20069;-80
2021/01/05 04:35:17;;;;;;;23.23;12.82;;;;;;;2.17;83.15;100105.63;4956399;28;20055;-79
2021/01/05 04:37:43;;;;;;;21.30;12.05;;;;;;;2.11;83.32;100096.16;4986847;28;20446;-79
2021/01/05 04:40:34;;;;;;;21.85;12.00;;;;;;;2.15;83.82;100094.34;4971007;28;20051;-79
2021/01/05 04:43:38;;;;;;;22.10;13.05;;;;;;;2.11;83.43;100103.97;4956626;28;20455;-77
2021/01/05 04:46:19;;;;;;;21.52;12.40;;;;;;;2.13;84.05;100110.03;4966024;28;20214;-79
2021/01/05 04:49:07;;;;;;;21.55;12.50;;;;;;;2.09;83.64;100103.16;4955818;28;20102;-78
2021/01/05 04:51:57;;;;;;;21.55;12.65;;;;;;;2.10;83.57;100123.16;4956617;28;20055;-78
2021/01/05 04:54:39;;;;;;;22.55;12.25;;;;;;;2.09;83.32;100121.44;4970740;28;20471;-77
2021/01/05 04:57:08;;;;;;;23.10;12.57;;;;;;;2.11;83.88;100114.44;4971178;28;20476;-79
2021/01/05 04:59:45;;;;;;;25.58;13.07;;;;;;;2.10;82.90;100121.41;4955479;28;20054;-78
2021/01/05 05:02:30;;;;;;;25.00;13.57;;;;;;;2.09;83.61;100126.66;4954844;29;20051;-78
2021/01/05 05:05:28;;;;;;;22.13;12.68;;;;;;;2.10;83.92;100121.41;4970785;28;20043;-78
2021/01/05 05:08:21;;;;;;;24.33;13.80;;;;;;;2.10;83.29;100124.03;4955940;28;20059;-78
2021/01/05 05:10:55;;;;;;;25.13;13.52;;;;;;;2.14;83.45;100122.22;4955518;28;20054;-78
2021/01/05 05:13:40;;;;;;;24.45;13.98;;;;;;;2.14;84.16;100122.22;4955721;28;20047;-78
2021/01/05 05:16:15;;;;;;;25.27;13.25;;;;;;;2.15;83.88;100121.34;4955806;28;20055;-78
2021/01/05 05:19:14;;;;;;;24.45;13.57;;;;;;;2.21;83.54;100122.97;4955868;29;20141;-79
2021/01/05 05:21:46;;;;;;;24.45;13.35;;;;;;;2.24;83.88;100128.13;4955834;28;20393;-77
2021/01/05 05:24:43;;;;;;;24.40;13.68;;;;;;;2.22;83.86;100132.53;4970542;28;20059;-79
2021/01/05 05:27:19;;;;;;;28.48;14.10;;;;;;;2.17;83.83;100132.63;4986369;28;20047;-78
2021/01/05 05:29:50;;;;;;;27.58;14.20;;;;;;;2.18;84.49;100126.50;4955867;28;20131;-78
2021/01/05 05:32:36;;;;;;;23.55;13.77;;;;;;;2.24;84.56;100135.97;4971170;28;20055;-80
2021/01/05 05:35:02;;;;;;;24.60;14.02;;;;;;;2.20;84.51;100132.56;4955818;28;20059;-79
2021/01/05 05:37:56;;;;;;;26.73;14.30;;;;;;;2.24;83.89;100131.63;4956333;29;20063;-79
2021/01/05 05:41:11;;;;;;;23.25;13.75;;;;;;;2.25;83.98;100127.25;4956310;28;20063;-79
2021/01/05 05:44:02;;;;;;;25.02;13.88;;;;;;;2.21;84.29;100131.66;4921195;28;20063;-81
2021/01/05 05:46:42;;;;;;;25.33;13.45;;;;;;;2.28;83.61;100127.19;4956790;28;20055;-80
2021/01/05 05:49:16;;;;;;;30.60;15.10;;;;;;;2.24;84.01;100126.38;4987499;28;20055;-77
2021/01/05 05:51:49;;;;;;;26.33;14.15;;;;;;;2.20;84.10;100124.75;4955500;28;20055;-78
2021/01/05 05:54:21;;;;;;;26.10;14.63;;;;;;;2.22;84.30;100129.91;4956171;28;20071;-79
2021/01/05 05:57:21;;;;;;;28.50;14.80;;;;;;;2.29;84.31;100139.38;4958820;28;20054;-78
2021/01/05 05:59:54;;;;;;;27.25;14.80;;;;;;;2.33;83.93;100146.28;4981706;28;20060;-82
2021/01/05 06:02:23;;;;;;;25.23;14.23;;;;;;;2.30;84.14;100136.75;4984956;28;20126;-81
2021/01/05 06:04:54;;;;;;;27.38;15.00;;;;;;;2.33;84.71;100141.06;4957744;29;20051;-83
2021/01/05 06:07:21;;;;;;;30.50;15.73;;;;;;;2.27;84.90;100141.16;4958261;29;20059;-80
2021/01/05 06:09:47;;;;;;;27.85;15.18;;;;;;;2.24;85.28;100136.84;4964047;29;20039;-81
2021/01/05 06:12:14;;;;;;;27.50;15.07;;;;;;;2.22;85.46;100150.81;4976784;28;20047;-82
2021/01/05 06:14:40;;;;;;;32.45;16.52;;;;;;;2.22;86.36;100148.19;4970240;28;20055;-81
2021/01/05 06:17:06;;;;;;;28.73;15.43;;;;;;;2.17;86.22;100156.13;4972745;28;20058;-81
2021/01/05 06:19:33;;;;;;;30.45;16.65;;;;;;;2.22;86.35;100154.28;4956065;29;20057;-79
2021/01/05 06:21:59;;;;;;;32.20;15.85;;;;;;;2.22;86.57;100154.28;4970376;28;20063;-80
2021/01/05 06:24:25;;;;;;;31.25;16.05;;;;;;;2.19;86.76;100150.88;4956034;28;20059;-81
2021/01/05 06:26:51;;;;;;;30.48;16.23;;;;;;;2.18;86.80;100157.00;4956817;29;20059;-81
2021/01/05 06:29:18;;;;;;;31.10;16.33;;;;;;;2.18;87.52;100157.00;4958722;28;20043;-79
2021/01/05 06:31:44;;;;;;;29.40;17.60;;;;;;;2.16;87.82;100159.63;4959760;29;20078;-82
2021/01/05 06:34:11;;;;;;;28.80;15.82;;;;;;;2.13;88.13;100158.81;4976593;28;20054;-79
2021/01/05 06:36:37;;;;;;;32.20;17.40;;;;;;;2.11;87.96;100153.59;4964978;29;20118;-78
2021/01/05 06:39:04;;;;;;;29.30;16.10;;;;;;;2.14;88.25;100152.69;4967330;28;20061;-78
2021/01/05 06:41:31;;;;;;;32.90;16.85;;;;;;;2.12;87.96;100152.72;4967735;28;20059;-80
2021/01/05 06:43:57;;;;;;;33.35;17.20;;;;;;;2.10;88.19;100150.13;4981799;28;20463;-79
2021/01/05 06:46:24;;;;;;;32.33;17.58;;;;;;;2.11;88.22;100159.69;4963084;29;20553;-78
2021/01/05 06:48:51;;;;;;;32.97;16.52;;;;;;;2.14;88.29;100145.72;4956584;29;20065;-79
2021/01/05 06:51:17;;;;;;;35.25;17.75;;;;;;;2.11;87.96;100151.88;4954990;29;20047;-80
2021/01/05 06:53:43;;;;;;;31.20;16.40;;;;;;;2.16;88.26;100158.78;4953429;29;20063;-80
2021/01/05 06:56:13;;;;;;;30.77;16.88;;;;;;;2.18;88.52;100163.09;4954643;28;20410;-79
2021/01/05 06:58:39;;;;;;;31.70;16.95;;;;;;;2.19;88.21;100151.75;4954787;28;20051;-78
2021/01/05 07:01:06;;;;;;;33.03;16.63;;;;;;;2.19;87.98;100156.13;4954499;28;20043;-78
2021/01/05 07:03:32;;;;;;;27.58;15.88;;;;;;;2.19;87.82;100162.19;4969050;28;20066;-78
2021/01/05 07:05:58;;;;;;;32.08;16.77;;;;;;;2.13;87.57;100157.06;4958193;28;20072;-77
2021/01/05 07:08:25;;;;;;;33.25;16.60;;;;;;;2.14;88.15;100161.41;4973514;28;20066;-82
2021/01/05 07:10:53;;;;;;;32.47;17.52;;;;;;;2.19;87.45;100164.81;4972383;28;20050;-80
2021/01/05 07:13:19;;;;;;;32.03;17.17;;;;;;;2.15;88.23;100172.72;4957844;28;20139;-80
2021/01/05 07:15:46;;;;;;;31.83;16.25;;;;;;;2.19;87.88;100177.00;4957800;29;20051;-80
2021/01/05 07:18:12;;;;;;;31.02;16.42;;;;;;;2.17;88.34;100181.41;4988943;28;20106;-80
2021/01/05 07:20:49;;;;;;;31.88;16.48;;;;;;;2.14;88.34;100177.06;4971761;28;20482;-81
2021/01/05 07:23:16;;;;;;;31.90;17.23;;;;;;;2.18;88.17;100177.91;4958220;28;20061;-82
2021/01/05 07:25:42;;;;;;;34.22;17.05;;;;;;;2.21;87.84;100177.81;4958316;28;20055;-78
2021/01/05 07:28:08;;;;;;;32.30;17.73;;;;;;;2.23;88.87;100176.03;4972153;28;20050;-79
2021/01/05 07:30:35;;;;;;;36.53;18.77;;;;;;;2.28;88.30;100182.94;4971832;28;20043;-79
2021/01/05 07:33:01;;;;;;;32.90;17.60;;;;;;;2.31;87.45;100187.25;4957450;28;20058;-78
2021/01/05 07:35:27;;;;;;;33.67;16.85;;;;;;;2.29;87.16;100187.28;4957562;29;20169;-78
2021/01/05 07:37:54;;;;;;;35.17;17.75;;;;;;;2.30;87.72;100181.16;4971962;28;20067;-78
2021/01/05 07:40:21;;;;;;;30.92;17.10;;;;;;;2.31;87.45;100195.09;4956780;29;20057;-82
2021/01/05 07:42:47;;;;;;;32.60;16.17;;;;;;;2.31;87.20;100185.50;4956205;29;20110;-79
2021/01/05 07:45:20;;;;;;;31.33;16.75;;;;;;;2.29;87.61;100187.28;4988314;28;20048;-80
2021/01/05 07:47:49;;;;;;;36.83;17.48;;;;;;;2.30;87.26;100194.22;4956680;28;20048;-80
2021/01/05 07:50:23;;;;;;;35.78;18.70;;;;;;;2.29;88.01;100197.72;4956668;28;20054;-80
2021/01/05 07:52:53;;;;;;;37.97;18.15;;;;;;;2.27;87.61;100189.03;4971388;28;20055;-79
2021/01/05 07:55:25;;;;;;;34.92;17.85;;;;;;;2.27;87.38;100185.56;4957444;28;20129;-77
2021/01/05 07:57:53;;;;;;;34.65;17.83;;;;;;;2.29;87.92;100192.50;4956845;28;20129;-78
2021/01/05 08:00:22;;;;;;;36.75;18.10;;;;;;;2.25;88.14;100185.59;4956978;28;20552;-79
2021/01/05 08:02:48;;;;;;;36.00;18.83;;;;;;;2.28;87.31;100200.34;4957304;28;20478;-77
2021/01/05 08:05:18;;;;;;;35.42;17.90;;;;;;;2.27;87.78;100204.72;4956443;28;20047;-78
2021/01/05 08:07:45;;;;;;;37.40;18.83;;;;;;;2.28;87.91;100202.97;4971936;28;20071;-80
2021/01/05 08:10:21;;;;;;;38.95;18.73;;;;;;;2.28;87.59;100205.59;4977844;28;20047;-80
2021/01/05 08:12:48;;;;;;;36.28;18.02;;;;;;;2.23;87.74;100197.81;4964633;28;20051;-78
2021/01/05 08:15:16;;;;;;;33.83;18.60;;;;;;;2.28;88.06;100209.06;4966576;28;20055;-78
2021/01/05 08:17:42;;;;;;;35.20;18.10;;;;;;;2.24;87.89;100210.00;4962624;28;20058;-81
2021/01/05 08:20:10;;;;;;;34.70;17.60;;;;;;;2.21;88.13;100201.34;4956415;29;20055;-81
2021/01/05 08:22:36;;;;;;;35.78;18.13;;;;;;;2.26;88.26;100212.56;4971651;28;20077;-79
2021/01/05 08:25:05;;;;;;;39.85;19.20;;;;;;;2.28;88.64;100206.44;4956788;28;20149;-80
2021/01/05 08:27:31;;;;;;;36.95;18.52;;;;;;;2.34;89.34;100215.94;4956594;28;20145;-78
2021/01/05 08:29:57;;;;;;;36.17;17.90;;;;;;;2.36;88.54;100211.56;4955282;29;20130;-79
2021/01/05 08:32:24;;;;;;;40.85;19.40;;;;;;;2.30;88.18;100204.69;4955822;29;20481;-78
2021/01/05 08:34:50;;;;;;;35.88;18.98;;;;;;;2.37;87.71;100205.41;4970660;28;20065;-80
2021/01/05 08:37:16;;;;;;;36.50;19.63;;;;;;;2.39;87.71;100204.50;4956303;28;20475;-80
2021/01/05 08:39:43;;;;;;;38.15;19.10;;;;;;;2.46;87.36;100206.16;4955915;29;20055;-79
2021/01/05 08:42:10;;;;;;;37.42;19.00;;;;;;;2.51;87.91;100213.06;4970740;28;20122;-80
2021/01/05 08:44:36;;;;;;;38.40;19.50;;;;;;;2.49;87.72;100210.47;4955814;28;20146;-77
2021/01/05 08:47:04;;;;;;;39.83;19.05;;;;;;;2.52;87.67;100209.56;4956145;29;20055;-80
2021/01/05 08:49:32;;;;;;;36.38;18.40;;;;;;;2.59;86.86;100217.25;4956121;28;20047;-80
2021/01/05 08:51:58;;;;;;;37.40;17.98;;;;;;;2.58;87.08;100212.03;4970481;28;20534;-80
2021/01/05 08:54:25;;;;;;;39.92;18.50;;;;;;;2.59;87.55;100221.59;4956464;28;20526;-78
2021/01/05 08:56:56;;;;;;;37.78;18.65;;;;;;;2.54;86.95;100213.84;4970519;28;20426;-78
2021/01/05 08:59:23;;;;;;;39.17;18.48;;;;;;;2.60;87.52;100225.94;4970915;28;20142;-81
2021/01/05 09:01:50;;;;;;;38.17;19.08;;;;;;;2.57;87.14;100220.78;4953924;29;20047;-78
2021/01/05 09:04:17;;;;;;;38.85;19.42;;;;;;;2.57;86.98;100224.25;4986463;28;20152;-78
2021/01/05 09:06:54;;;;;;;35.53;19.05;;;;;;;2.51;86.57;100213.06;4955530;28;20166;-78
2021/01/05 09:09:21;;;;;;;38.78;18.92;;;;;;;2.51;87.08;100213.91;4955914;28;20053;-80
2021/01/05 09:11:55;;;;;;;37.83;18.70;;;;;;;2.55;86.87;100214.69;4955931;28;20062;-79
2021/01/05 09:14:23;;;;;;;39.70;19.10;;;;;;;2.56;86.60;100212.06;4956356;28;20047;-80
2021/01/05 09:16:58;;;;;;;37.83;19.13;;;;;;;2.59;86.86;100211.16;4956336;28;20063;-79
2021/01/05 09:19:25;;;;;;;36.50;18.35;;;;;;;2.66;86.51;100216.25;4970750;28;20086;-80
2021/01/05 09:21:52;;;;;;;39.53;19.00;;;;;;;2.65;86.57;100211.06;4971410;28;20051;-81
2021/01/05 09:24:19;;;;;;;38.60;17.80;;;;;;;2.67;85.84;100207.53;4956874;28;20176;-78
2021/01/05 09:26:51;;;;;;;34.13;18.15;;;;;;;2.73;85.99;100211.78;4957955;28;20046;-79
2021/01/05 09:29:18;;;;;;;34.88;17.75;;;;;;;2.75;85.79;100220.44;4976923;28;20492;-77
2021/01/05 09:31:48;;;;;;;35.58;18.17;;;;;;;2.84;84.94;100217.66;4987064;28;20087;-83
2021/01/05 09:34:17;;;;;;;32.40;18.38;;;;;;;2.81;84.79;100208.16;5002603;28;20065;-81
2021/01/05 09:36:43;;;;;;;35.33;18.27;;;;;;;2.91;84.23;100214.06;4966905;28;20474;-78
2021/01/05 09:39:14;;;;;;;33.40;17.63;;;;;;;2.90;84.38;100214.94;4964637;29;20055;-78
2021/01/05 09:41:45;;;;;;;27.50;14.90;;;;;;;2.89;84.50;100213.22;4982240;28;20114;-79
2021/01/05 09:44:13;;;;;;;33.50;17.75;;;;;;;2.96;84.13;100213.97;4969214;28;20492;-77
2021/01/05 09:46:41;;;;;;;33.75;17.73;;;;;;;2.88;83.50;100208.88;4965805;28;20134;-79
2021/01/05 09:49:14;;;;;;;34.58;17.55;;;;;;;2.91;83.92;100214.06;4979770;28;20075;-78
2021/01/05 09:51:41;;;;;;;35.45;17.25;;;;;;;2.99;84.27;100217.38;4977632;28;20063;-79
2021/01/05 09:54:15;;;;;;;34.35;16.88;;;;;;;2.99;84.40;100204.28;4957935;29;20051;-79
2021/01/05 09:56:48;;;;;;;28.55;16.85;;;;;;;3.10;84.29;100210.19;4955797;28;20054;-79
2021/01/05 09:59:15;;;;;;;28.48;15.98;;;;;;;3.14;82.70;100204.03;4954938;29;20047;-77
2021/01/05 10:01:41;;;;;;;32.53;16.67;;;;;;;3.11;82.97;100211.94;4954970;28;20521;-79
2021/01/05 10:04:09;;;;;;;29.90;16.52;;;;;;;3.10;83.06;100204.09;4954839;29;20117;-80
2021/01/05 10:06:35;;;;;;;36.85;18.02;;;;;;;3.20;82.88;100202.16;4955342;29;20139;-78
2021/01/05 10:09:08;;;;;;;32.15;17.15;;;;;;;3.12;82.46;100194.47;4969676;28;20476;-80
2021/01/05 10:11:39;;;;;;;32.88;17.13;;;;;;;3.16;82.75;100209.19;4986811;28;20058;-80
2021/01/05 10:14:06;;;;;;;30.20;16.27;;;;;;;3.17;83.60;100203.94;4969509;28;20117;-78
2021/01/05 10:16:32;;;;;;;31.52;16.73;;;;;;;3.17;83.60;100203.94;4954514;28;20134;-78
2021/01/05 10:19:03;;;;;;;30.52;16.55;;;;;;;3.16;83.70;100207.44;4955147;29;20134;-79
2021/01/05 10:21:37;;;;;;;29.05;15.57;;;;;;;3.15;83.19;100212.69;4955527;29;20063;-80
2021/01/05 10:24:05;;;;;;;29.88;15.75;;;;;;;3.15;84.00;100199.63;4958456;28;20138;-80
2021/01/05 10:26:33;;;;;;;26.17;14.98;;;;;;;3.16;83.13;100194.34;4972000;28;20058;-78
2021/01/05 10:29:00;;;;;;;27.08;15.52;;;;;;;3.18;84.13;100202.19;4956304;28;20047;-78
2021/01/05 10:31:35;;;;;;;29.60;15.80;;;;;;;3.18;83.60;100194.34;4969510;28;20429;-78
2021/01/05 10:34:01;;;;;;;27.85;15.70;;;;;;;3.22;84.40;100192.53;4971292;28;20082;-78
2021/01/05 10:36:28;;;;;;;27.42;14.90;;;;;;;3.28;83.73;100202.88;4955405;28;20497;-82
2021/01/05 10:39:12;;;;;;;31.52;15.10;;;;;;;3.28;83.63;100189.78;4969257;28;20091;-81
2021/01/05 10:41:42;;;;;;;26.95;15.43;;;;;;;3.29;83.36;100191.53;4959172;28;20059;-81
2021/01/05 10:44:11;;;;;;;28.00;15.23;;;;;;;3.29;82.46;100186.28;4974053;28;20082;-80
2021/01/05 10:46:38;;;;;;;27.25;14.50;;;;;;;3.37;82.14;100189.59;4958731;28;20478;-79
2021/01/05 10:49:05;;;;;;;26.80;14.43;;;;;;;3.37;82.90;100192.22;4989480;28;20074;-79
2021/01/05 10:51:31;;;;;;;26.85;14.55;;;;;;;3.40;82.58;100193.00;4957836;28;20371;-80
2021/01/05 10:53:58;;;;;;;27.90;14.70;;;;;;;3.47;82.27;100194.59;4959045;28;20051;-80
2021/01/05 10:56:25;;;;;;;25.17;14.13;;;;;;;3.49;81.90;100199.78;4958511;29;20146;-82
2021/01/05 10:58:51;;;;;;;27.08;15.10;;;;;;;3.40;81.97;100200.00;4960163;29;20082;-79
2021/01/05 11:01:18;;;;;;;27.10;15.00;;;;;;;3.30;81.61;100201.97;4957445;28;20138;-77
2021/01/05 11:03:44;;;;;;;24.88;14.50;;;;;;;3.25;81.81;100197.69;4956130;29;20058;-77
2021/01/05 11:06:11;;;;;;;23.60;13.10;;;;;;;3.19;81.66;100198.69;4957697;29;20079;-77
2021/01/05 11:08:37;;;;;;;26.55;14.27;;;;;;;3.11;82.53;100195.38;4971767;28;20054;-82
2021/01/05 11:11:05;;;;;;;25.08;13.90;;;;;;;3.10;83.56;100193.63;4956642;29;20221;-77
2021/01/05 11:13:32;;;;;;;25.20;14.35;;;;;;;3.08;83.42;100190.19;4957694;28;20490;-77
2021/01/05 11:19:24;;;;;;;25.67;13.82;;;;;;;3.14;83.48;100174.38;4959269;29;20437;-77
2021/01/05 11:21:56;;;;;;;23.17;13.68;;;;;;;3.26;83.24;100184.59;4959433;28;20055;-78
2021/01/05 11:24:24;;;;;;;24.55;14.32;;;;;;;3.25;83.37;100176.75;4957260;28;20115;-78
2021/01/05 11:26:51;;;;;;;24.25;13.40;;;;;;;3.36;82.86;100177.41;4957768;28;20123;-77
2021/01/05 11:29:18;;;;;;;22.20;12.75;;;;;;;3.44;82.49;100172.88;4956850;28;20468;-77
2021/01/05 11:31:51;;;;;;;22.65;13.00;;;;;;;3.44;82.74;100175.50;4971690;28;20135;-77
2021/01/05 11:34:18;;;;;;;24.10;13.00;;;;;;;3.50;82.50;100177.97;4971376;28;20110;-78
2021/01/05 11:36:44;;;;;;;19.60;11.60;;;;;;;3.50;81.95;100164.88;4956786;28;20142;-79
2021/01/05 11:39:10;;;;;;;21.67;12.50;;;;;;;3.56;81.65;100166.50;4957019;29;20154;-79
2021/01/05 11:41:38;;;;;;;22.95;12.10;;;;;;;3.45;81.68;100164.13;4971886;28;20055;-75
2021/01/05 11:44:05;;;;;;;19.65;11.73;;;;;;;3.47;80.85;100157.94;4958992;29;20445;-77